Accueil
METAR-TAF:

METAR-TAF

Aéroports :

Ajaccio, France

Aéroport d'Ajaccio-Napoléon-Bonaparte

latitude: 41-55N, longitude: 008-48E, altitude: 6 m

Observation

Le bulletin a été fait il y a 23 minutes, à 08:00 UTC
Vent 4 kt de nord/nord-est
Température 10°C
Humidité 87%
Pression 1016 hPa
Visibilité 10 km ou plus
Quelques nuages à une hauteur de 2500 ft

METAR: LFKJ 180800Z 03004KT 9999 FEW025 10/08 Q1016 NOSIG

Heure: 09:23 (08:23 UTC)

Prévision

Le bulletin a été fait il y a 6 heures et 23 minutes, à 02:00 UTC
Prévision valable du 18 à 03 UTC au 19 à 03 UTC
Vent 6 kt de nord-est
Visibilité 10 km ou plus
pas de nuages en-dessous de 1500 mètres et pas de cumulonimbus.
Evoluant progressivement
du 18 à 10 UTC au 18 à 12 UTC
Vent 6 kt de ouest/sud-ouest
Evoluant progressivement
du 18 à 20 UTC au 18 à 21 UTC
Vent 6 kt de nord-est

TAF: LFKJ 180200Z 1803/1903 04006KT CAVOK BECMG 1810/1812 24006KT BECMG 1820/1821 04006KT

Observations et prévisions météorologiques de plus de 4000 aéroports (messages METAR et TAF).

Les stations disponibles sont représentées par des disques jaunes et rouges sur la carte.

Passer la souris dessus pour voir le nom de la station.

Cliquer dessus pour voir les observations et prévisions météorologiques.

Pour changer de carte: cliquez sur les boutons verts avec une croix noire pour zoomer, sur le bouton vert avec un tiret pour effectuer un zoom arrière, ou sur les flèches vertes pour les cartes adjacentes.


METAR-TAF: